createdAt,value
2023-05-17T00:04:18.337Z,8.07
2023-05-17T00:09:18.293Z,8.02
2023-05-17T00:14:18.236Z,8.02
2023-05-17T00:19:18.337Z,8.02
2023-05-17T00:24:18.192Z,7.99
2023-05-17T00:29:18.192Z,7.94
2023-05-17T00:34:18.152Z,7.82
2023-05-17T00:39:18.131Z,7.70
2023-05-17T00:44:18.121Z,7.74
2023-05-17T00:49:18.108Z,7.66
2023-05-17T00:54:18.203Z,7.50
2023-05-17T00:59:18.088Z,7.45
2023-05-17T01:04:18.361Z,7.36
2023-05-17T01:09:18.019Z,7.41
2023-05-17T01:14:18.007Z,7.41
2023-05-17T01:19:18.087Z,7.33
2023-05-17T01:24:17.968Z,7.32
2023-05-17T01:29:17.906Z,7.27
2023-05-17T01:34:17.853Z,7.18
2023-05-17T01:39:17.837Z,7.12
2023-05-17T01:44:17.855Z,7.11
2023-05-17T01:49:17.815Z,7.12
2023-05-17T01:54:17.801Z,7.12
2023-05-17T01:59:17.801Z,7.11
2023-05-17T02:04:17.876Z,7.12
2023-05-17T02:09:17.692Z,7.11
2023-05-17T02:14:17.658Z,7.11
2023-05-17T02:19:17.688Z,7.08
2023-05-17T02:24:17.581Z,6.99
2023-05-17T02:29:17.568Z,6.94
2023-05-17T02:34:17.553Z,6.91
2023-05-17T02:39:17.536Z,6.87
2023-05-17T02:44:17.483Z,6.86
2023-05-17T02:49:17.481Z,6.86
2023-05-17T02:54:17.428Z,6.86
2023-05-17T02:59:17.413Z,6.86
2023-05-17T03:04:17.384Z,6.89
2023-05-17T03:09:17.348Z,6.91
2023-05-17T03:14:17.314Z,6.90
2023-05-17T03:19:17.382Z,6.90
2023-05-17T03:24:17.260Z,6.93
2023-05-17T03:29:17.244Z,6.96
2023-05-17T03:34:17.245Z,6.99
2023-05-17T03:39:17.187Z,7.00
2023-05-17T03:44:17.339Z,7.04
2023-05-17T03:49:17.326Z,7.12
2023-05-17T03:54:17.354Z,7.09
2023-05-17T03:59:17.120Z,7.15
2023-05-17T04:04:17.138Z,7.27
2023-05-17T04:09:17.043Z,7.36
2023-05-17T04:14:16.986Z,7.48
2023-05-17T04:19:17.279Z,7.54
2023-05-17T04:24:16.929Z,7.62
2023-05-17T04:29:16.999Z,7.70
2023-05-17T04:34:16.944Z,7.74
2023-05-17T04:39:16.862Z,7.81
2023-05-17T04:44:16.932Z,7.91
2023-05-17T04:49:16.803Z,7.92
2023-05-17T04:54:16.994Z,8.02
2023-05-17T04:59:16.912Z,8.10
2023-05-17T05:04:16.893Z,8.18
2023-05-17T05:09:16.762Z,8.29
2023-05-17T05:14:18.457Z,8.34
2023-05-17T05:19:16.898Z,8.42
2023-05-17T05:24:16.583Z,8.55
2023-05-17T05:29:16.604Z,8.68
2023-05-17T05:34:16.538Z,8.82
2023-05-17T05:39:16.544Z,8.97
2023-05-17T05:44:16.500Z,9.20
2023-05-17T05:49:16.497Z,9.50
2023-05-17T05:54:16.493Z,9.55
2023-05-17T05:59:16.459Z,9.83
2023-05-17T06:04:16.528Z,10.01
2023-05-17T06:09:16.431Z,10.29
2023-05-17T06:14:16.434Z,10.62
2023-05-17T06:19:16.539Z,10.46
2023-05-17T06:24:16.322Z,10.11
2023-05-17T06:29:16.352Z,10.29
2023-05-17T06:34:16.277Z,10.46
2023-05-17T06:39:16.276Z,10.76
2023-05-17T06:44:16.253Z,11.28
2023-05-17T06:49:16.216Z,11.26
2023-05-17T06:54:16.148Z,11.17
2023-05-17T06:59:16.129Z,11.27
2023-05-17T07:04:16.163Z,13.29
2023-05-17T07:09:16.041Z,16.17
2023-05-17T07:14:16.028Z,17.33
2023-05-17T07:19:16.164Z,16.26
2023-05-17T07:24:15.958Z,14.36
2023-05-17T07:29:15.995Z,12.71
2023-05-17T07:34:15.986Z,13.62
2023-05-17T07:39:15.915Z,18.20
2023-05-17T07:44:15.838Z,18.93
2023-05-17T07:49:15.953Z,15.76
2023-05-17T07:54:15.809Z,15.92
2023-05-17T07:59:15.760Z,16.96
2023-05-17T08:04:15.742Z,17.65
2023-05-17T08:09:15.641Z,15.38
2023-05-17T08:14:15.673Z,15.03
2023-05-17T08:19:15.691Z,13.46
2023-05-17T08:24:15.890Z,17.06
2023-05-17T08:29:15.555Z,19.42
2023-05-17T08:34:15.619Z,20.46
2023-05-17T08:39:15.475Z,16.80
2023-05-17T08:44:15.444Z,17.99
2023-05-17T08:49:15.445Z,18.60
2023-05-17T08:54:15.366Z,19.47
2023-05-17T08:59:15.359Z,20.60
2023-05-17T09:04:15.384Z,21.05
2023-05-17T09:09:15.294Z,21.12
2023-05-17T09:14:15.239Z,18.26
2023-05-17T09:19:15.281Z,19.61
2023-05-17T09:24:15.167Z,17.32
2023-05-17T09:29:15.371Z,17.96
2023-05-17T09:34:15.095Z,20.68
2023-05-17T09:39:15.178Z,18.62
2023-05-17T09:44:15.194Z,21.31
2023-05-17T09:49:15.024Z,22.02
2023-05-17T09:54:15.024Z,20.82
2023-05-17T09:59:15.028Z,20.90
2023-05-17T10:04:15.029Z,21.86
2023-05-17T10:09:14.892Z,21.91
2023-05-17T10:14:14.966Z,21.66
2023-05-17T10:19:14.887Z,22.36
2023-05-17T10:24:14.831Z,21.86
2023-05-17T10:29:14.854Z,22.56
2023-05-17T10:34:14.866Z,23.39
2023-05-17T10:39:14.800Z,21.30
2023-05-17T10:44:14.681Z,22.44
2023-05-17T10:49:14.692Z,22.75
2023-05-17T10:54:14.630Z,22.66
2023-05-17T10:59:14.654Z,22.82
2023-05-17T11:04:14.655Z,22.79
2023-05-17T11:09:14.679Z,19.17
2023-05-17T11:14:14.589Z,21.99
2023-05-17T11:19:14.641Z,22.63
2023-05-17T11:24:14.469Z,22.94
2023-05-17T11:29:14.450Z,23.35
2023-05-17T11:34:14.460Z,24.61
2023-05-17T11:39:14.411Z,23.81
2023-05-17T11:44:14.377Z,23.44
2023-05-17T11:49:23.621Z,23.45
2023-05-17T11:54:14.783Z,23.67
2023-05-17T11:59:14.318Z,23.77
2023-05-17T12:04:14.329Z,23.74
2023-05-17T12:09:14.329Z,24.37
2023-05-17T12:14:14.288Z,23.56
2023-05-17T12:19:14.393Z,23.29
2023-05-17T12:24:14.346Z,23.69
2023-05-17T12:29:14.258Z,24.21
2023-05-17T12:34:14.370Z,24.67
2023-05-17T12:39:14.202Z,24.74
2023-05-17T12:44:16.235Z,23.79
2023-05-17T12:49:14.200Z,21.37
2023-05-17T12:54:14.073Z,20.15
2023-05-17T12:59:14.063Z,19.53
2023-05-17T13:04:14.126Z,19.25
2023-05-17T13:09:14.034Z,18.87
2023-05-17T13:14:14.063Z,19.38
2023-05-17T13:19:14.187Z,18.51
2023-05-17T13:24:13.927Z,18.79
2023-05-17T13:29:13.869Z,18.53
2023-05-17T13:34:13.892Z,18.57
2023-05-17T13:39:13.821Z,18.53
2023-05-17T13:44:13.769Z,18.28
2023-05-17T13:49:13.803Z,17.71
2023-05-17T13:54:13.755Z,17.83
2023-05-17T13:59:13.734Z,18.05
2023-05-17T14:04:13.779Z,18.69
2023-05-17T14:09:13.702Z,18.41
2023-05-17T14:14:13.686Z,17.95
2023-05-17T14:19:13.774Z,17.80
2023-05-17T14:24:13.656Z,17.39
2023-05-17T14:29:13.634Z,17.66
2023-05-17T14:34:13.626Z,17.71
2023-05-17T14:39:13.570Z,17.38
2023-05-17T14:44:13.537Z,17.14
2023-05-17T14:49:13.541Z,17.35
2023-05-17T14:54:13.864Z,17.22
2023-05-17T14:59:13.440Z,17.45
2023-05-17T15:04:13.466Z,17.06
2023-05-17T15:09:13.392Z,16.95
2023-05-17T15:14:13.349Z,17.09
2023-05-17T15:19:13.399Z,17.06
2023-05-17T15:24:14.352Z,17.24
2023-05-17T15:29:13.319Z,17.28
2023-05-17T15:34:13.328Z,16.91
2023-05-17T15:39:13.207Z,16.95
2023-05-17T15:44:13.151Z,17.27
2023-05-17T15:49:13.200Z,17.35
2023-05-17T15:54:13.065Z,16.92
2023-05-17T15:59:13.017Z,17.09
2023-05-17T16:04:12.997Z,16.92
2023-05-17T16:09:12.962Z,16.70
2023-05-17T16:14:12.950Z,16.57
2023-05-17T16:19:13.088Z,16.44
2023-05-17T16:24:12.903Z,16.26
2023-05-17T16:29:12.854Z,16.22
2023-05-17T16:34:12.880Z,16.63
2023-05-17T16:39:12.766Z,15.95
2023-05-17T16:44:12.756Z,15.78
2023-05-17T16:49:12.712Z,15.71
2023-05-17T16:54:12.661Z,15.59
2023-05-17T16:59:12.684Z,15.66
2023-05-17T17:04:12.698Z,15.62
2023-05-17T17:09:12.622Z,15.66
2023-05-17T17:14:12.552Z,15.51
2023-05-17T17:19:12.522Z,15.28
2023-05-17T17:24:12.479Z,15.11
2023-05-17T17:29:12.460Z,15.04
2023-05-17T17:34:12.397Z,14.97
2023-05-17T17:39:12.378Z,14.85
2023-05-17T17:44:12.402Z,14.86
2023-05-17T17:49:12.336Z,14.72
2023-05-17T17:54:12.328Z,14.54
2023-05-17T17:59:12.267Z,14.46
2023-05-17T18:04:12.282Z,14.30
2023-05-17T18:09:12.189Z,14.19
2023-05-17T18:14:12.166Z,14.08
2023-05-17T18:19:12.152Z,13.87
2023-05-17T18:24:12.120Z,13.75
2023-05-17T18:29:12.061Z,13.63
2023-05-17T18:34:12.035Z,13.54
2023-05-17T18:39:12.011Z,13.39
2023-05-17T18:44:14.356Z,13.19
2023-05-17T18:49:12.002Z,13.01
2023-05-17T18:54:11.890Z,12.85
2023-05-17T18:59:11.859Z,12.71
2023-05-17T19:04:11.889Z,12.54
2023-05-17T19:09:11.863Z,12.38
2023-05-17T19:14:11.808Z,12.25
2023-05-17T19:19:11.858Z,12.08
2023-05-17T19:24:11.768Z,11.94
2023-05-17T19:29:11.740Z,11.77
2023-05-17T19:34:11.736Z,11.48
2023-05-17T19:39:11.729Z,11.06
2023-05-17T19:44:11.696Z,10.68
2023-05-17T19:49:11.678Z,10.49
2023-05-17T19:54:11.636Z,10.26
2023-05-17T19:59:11.597Z,9.98
2023-05-17T20:04:11.710Z,9.67
2023-05-17T20:09:11.536Z,9.35
2023-05-17T20:14:11.480Z,9.23
2023-05-17T20:19:11.436Z,9.08
2023-05-17T20:24:11.399Z,8.86
2023-05-17T20:29:11.357Z,8.67
2023-05-17T20:34:11.333Z,8.46
2023-05-17T20:39:11.276Z,8.37
2023-05-17T20:44:11.232Z,8.37
2023-05-17T20:49:11.210Z,8.32
2023-05-17T20:54:11.206Z,8.40
2023-05-17T20:59:11.184Z,8.31
2023-05-17T21:04:11.255Z,8.29
2023-05-17T21:09:11.158Z,8.27
2023-05-17T21:14:11.166Z,8.27
2023-05-17T21:19:11.180Z,8.29
2023-05-17T21:24:11.122Z,8.46
2023-05-17T21:29:11.049Z,8.75
2023-05-17T21:34:11.116Z,8.97
2023-05-17T21:39:10.988Z,8.88
2023-05-17T21:44:10.972Z,8.67
2023-05-17T21:49:10.960Z,8.67
2023-05-17T21:54:10.929Z,8.82
2023-05-17T21:59:10.921Z,9.00
2023-05-17T22:04:10.905Z,9.15
2023-05-17T22:09:10.893Z,9.19
2023-05-17T22:14:10.887Z,9.08
2023-05-17T22:19:10.851Z,9.00
2023-05-17T22:24:10.807Z,8.80
2023-05-17T22:29:10.747Z,8.67
2023-05-17T22:34:10.731Z,8.43
2023-05-17T22:39:10.708Z,8.28
2023-05-17T22:44:10.701Z,8.27
2023-05-17T22:49:10.672Z,8.25
2023-05-17T22:54:10.654Z,8.22
2023-05-17T22:59:10.645Z,8.21
2023-05-17T23:04:10.677Z,8.20
2023-05-17T23:09:10.596Z,8.24
2023-05-17T23:14:10.598Z,8.34
2023-05-17T23:19:10.607Z,8.39
2023-05-17T23:24:10.547Z,8.47
2023-05-17T23:29:10.500Z,8.50
2023-05-17T23:34:10.462Z,8.58
2023-05-17T23:39:10.453Z,8.60
2023-05-17T23:44:10.440Z,8.57
2023-05-17T23:49:10.411Z,8.54
2023-05-17T23:54:10.405Z,8.40
2023-05-17T23:59:10.345Z,8.31
